Time;durP1;ratioP1;P1;durP2;ratioP2;P2;SDS_P1;SDS_P2;PMS_P1;PMS_P2;Temp;Humidity;BMP_temperature;BMP_pressure;BME280_temperature;BME280_humidity;BME280_pressure;Samples;Min_cycle;Max_cycle;Signal;HPM_P1;HPM_P2
2021/07/19 00:02:04;;;;;;;8.07;5.63;;;;;;;19.38;67.48;100074.37;153945;1093;103118;-74
2021/07/19 00:05:12;;;;;;;8.73;6.13;;;;;;;19.42;67.71;100077.48;153998;1094;103199;-74
2021/07/19 00:08:17;;;;;;;8.23;5.63;;;;;;;19.42;67.42;100077.48;153965;1101;103227;-74
2021/07/19 00:11:22;;;;;;;9.58;5.60;;;;;;;19.44;67.44;100075.39;153939;1101;103190;-73
2021/07/19 00:14:28;;;;;;;8.10;6.43;;;;;;;19.44;67.28;100080.80;153942;1101;103166;-73
2021/07/19 00:17:33;;;;;;;8.70;6.03;;;;;;;19.45;67.45;100073.50;153984;1101;103136;-75
2021/07/19 00:20:38;;;;;;;7.93;5.68;;;;;;;19.46;67.09;100072.44;154010;1101;103168;-75
2021/07/19 00:23:43;;;;;;;7.83;6.30;;;;;;;19.43;67.24;100071.00;153971;1101;103190;-74
2021/07/19 00:26:48;;;;;;;8.15;5.95;;;;;;;19.40;67.19;100068.75;153977;1093;103221;-74
2021/07/19 00:29:53;;;;;;;8.10;6.20;;;;;;;19.34;67.03;100069.58;153917;1093;103141;-75
2021/07/19 00:32:58;;;;;;;9.70;6.20;;;;;;;19.25;67.10;100076.31;153913;1101;103248;-73
2021/07/19 00:36:07;;;;;;;10.43;5.97;;;;;;;19.16;67.52;100078.41;153917;1093;103126;-73
2021/07/19 00:39:12;;;;;;;8.08;5.68;;;;;;;19.14;67.23;100081.32;153946;1101;103248;-72
2021/07/19 00:42:17;;;;;;;10.13;6.13;;;;;;;19.15;67.49;100069.47;153974;1093;103125;-75
2021/07/19 00:45:26;;;;;;;9.18;6.08;;;;;;;19.10;67.36;100077.38;153971;1101;103547;-73
2021/07/19 00:48:31;;;;;;;8.33;6.30;;;;;;;19.06;67.39;100068.05;153979;1101;103177;-72
2021/07/19 00:51:37;;;;;;;10.80;6.50;;;;;;;18.98;67.48;100069.11;154014;1093;103124;-73
2021/07/19 00:54:46;;;;;;;7.65;6.20;;;;;;;18.94;67.43;100072.46;154019;1093;103186;-74
2021/07/19 00:57:55;;;;;;;9.23;5.95;;;;;;;18.89;67.43;100072.26;154013;1093;103234;-75
2021/07/19 01:01:03;;;;;;;8.47;5.60;;;;;;;18.89;67.27;100072.26;153976;1093;103224;-74
2021/07/19 01:04:09;;;;;;;8.97;6.13;;;;;;;18.87;67.54;100066.23;153946;1094;103496;-75
2021/07/19 01:07:16;;;;;;;8.60;6.10;;;;;;;18.82;67.39;100067.70;153992;1093;103131;-75
2021/07/19 01:10:22;;;;;;;8.05;6.40;;;;;;;18.79;67.71;100075.38;153943;1101;103596;-75
2021/07/19 01:13:29;;;;;;;7.90;6.37;;;;;;;18.71;67.58;100073.72;154046;1101;103129;-75
2021/07/19 01:16:34;;;;;;;9.20;6.05;;;;;;;18.61;67.67;100076.01;154035;1093;103198;-76
2021/07/19 01:19:41;;;;;;;10.73;6.20;;;;;;;18.53;67.59;100073.53;153899;1094;103218;-75
2021/07/19 01:23:30;;;;;;;8.55;5.68;;;;;;;18.51;68.26;100081.02;153952;1094;103192;-74
2021/07/19 01:26:57;;;;;;;8.03;5.70;;;;;;;18.45;68.43;100078.10;153815;1093;103214;-73
2021/07/19 01:30:05;;;;;;;8.45;6.20;;;;;;;18.40;67.91;100086.02;154001;1094;103200;-73
2021/07/19 01:33:13;;;;;;;13.68;6.43;;;;;;;18.34;67.92;100078.76;153981;1093;103123;-74
2021/07/19 01:36:25;;;;;;;8.90;6.28;;;;;;;18.26;67.79;100084.34;153906;1094;103187;-73
2021/07/19 01:40:11;;;;;;;8.88;6.28;;;;;;;18.16;68.71;100087.46;153578;1097;103374;-73
2021/07/19 01:43:17;;;;;;;8.23;5.68;;;;;;;18.07;69.01;100087.88;153559;1104;103493;-73
2021/07/19 01:46:24;;;;;;;7.98;5.48;;;;;;;18.02;69.36;100094.72;153989;1093;103114;-73
2021/07/19 01:49:31;;;;;;;10.15;6.53;;;;;;;18.05;69.05;100094.33;153970;1101;103700;-73
2021/07/19 01:52:38;;;;;;;12.08;6.63;;;;;;;18.11;69.55;100103.47;153922;1094;103185;-73
2021/07/19 01:55:45;;;;;;;9.95;7.18;;;;;;;18.14;69.66;100102.22;154002;1093;103305;-72
2021/07/19 01:58:51;;;;;;;9.00;6.70;;;;;;;18.18;69.21;100098.89;154000;1093;103289;-73
2021/07/19 02:01:58;;;;;;;8.73;6.67;;;;;;;18.22;69.05;100105.53;154078;1093;103124;-73
2021/07/19 02:05:07;;;;;;;9.73;6.57;;;;;;;18.27;69.79;100102.23;153933;1101;103128;-74
2021/07/19 02:08:15;;;;;;;8.78;6.45;;;;;;;18.27;69.23;100102.23;153946;1101;103253;-73
2021/07/19 02:11:33;;;;;;;8.95;6.68;;;;;;;18.32;70.03;100104.30;153998;1094;103308;-73
2021/07/19 02:14:42;;;;;;;8.80;6.95;;;;;;;18.27;69.28;100102.23;154010;1093;103221;-72
2021/07/19 02:17:56;;;;;;;11.20;7.10;;;;;;;18.18;69.44;100104.29;153995;1093;103214;-73
2021/07/19 02:21:05;;;;;;;7.90;5.80;;;;;;;18.07;69.97;100102.20;154003;1101;103133;-73
2021/07/19 02:24:14;;;;;;;9.63;6.70;;;;;;;18.01;69.79;100103.88;153918;1093;103115;-75
2021/07/19 02:27:55;;;;;;;12.35;6.80;;;;;;;17.98;69.84;100103.45;153926;1093;103186;-73
2021/07/19 02:31:05;;;;;;;8.55;6.93;;;;;;;17.96;69.76;100100.95;153940;1094;103263;-75
2021/07/19 02:34:11;;;;;;;8.33;6.40;;;;;;;18.02;69.77;100096.60;153974;1093;103208;-75
2021/07/19 02:37:18;;;;;;;9.10;6.93;;;;;;;18.07;69.80;100102.20;153963;1093;103253;-74
2021/07/19 02:40:44;;;;;;;9.35;6.90;;;;;;;17.99;69.72;100103.22;154011;1100;103132;-74
2021/07/19 02:43:51;;;;;;;8.97;6.73;;;;;;;17.86;69.76;100116.73;153978;1094;103139;-73
2021/07/19 02:46:59;;;;;;;9.40;6.08;;;;;;;17.78;69.71;100109.62;154020;1101;103192;-74
2021/07/19 02:50:10;;;;;;;8.38;6.18;;;;;;;17.81;69.73;100111.06;154023;1093;103115;-75
2021/07/19 02:53:19;;;;;;;9.05;6.75;;;;;;;17.79;69.71;100113.97;153898;1094;103192;-73
2021/07/19 02:56:25;;;;;;;9.20;6.83;;;;;;;17.75;69.72;100114.58;154005;1093;103128;-72
2021/07/19 02:59:30;;;;;;;9.10;7.10;;;;;;;17.73;69.76;100116.66;154033;1093;103156;-73
2021/07/19 03:02:39;;;;;;;10.27;7.30;;;;;;;17.60;69.98;100120.14;153976;1094;103195;-71
2021/07/19 03:05:50;;;;;;;9.27;5.97;;;;;;;17.50;69.85;100119.70;153975;1093;103132;-71
2021/07/19 03:09:01;;;;;;;8.45;5.75;;;;;;;17.49;69.88;100124.23;153885;1093;103125;-71
2021/07/19 03:12:19;;;;;;;9.25;5.85;;;;;;;17.57;70.06;100129.48;153695;1101;103244;-68
2021/07/19 03:15:30;;;;;;;9.73;7.10;;;;;;;17.70;69.90;100134.06;153748;1093;103129;-69
2021/07/19 03:18:39;;;;;;;9.47;6.87;;;;;;;17.73;69.78;100140.95;154065;1101;103192;-70
2021/07/19 03:21:46;;;;;;;8.40;6.10;;;;;;;17.75;69.83;100130.78;153668;1094;103184;-70
2021/07/19 03:24:59;;;;;;;8.60;6.65;;;;;;;17.82;69.68;100131.61;153691;1101;103187;-70
2021/07/19 03:28:08;;;;;;;8.03;6.07;;;;;;;17.88;69.68;100124.59;153812;1093;103191;-71
2021/07/19 03:31:15;;;;;;;9.00;6.05;;;;;;;17.96;69.69;100124.42;153826;1093;103135;-71
2021/07/19 03:34:23;;;;;;;9.93;6.20;;;;;;;18.12;69.58;100125.90;153829;1101;103235;-71
2021/07/19 03:37:30;;;;;;;8.45;5.90;;;;;;;18.25;69.43;100117.81;153937;1094;103179;-71
2021/07/19 03:40:38;;;;;;;10.70;6.60;;;;;;;18.39;69.27;100126.75;153822;1093;103211;-71
2021/07/19 03:43:46;;;;;;;12.17;6.80;;;;;;;18.54;69.08;100135.48;153964;1101;103195;-71
2021/07/19 03:46:51;;;;;;;8.98;6.13;;;;;;;18.68;68.96;100136.30;153860;1101;103125;-71
2021/07/19 03:49:58;;;;;;;9.07;6.77;;;;;;;18.78;68.89;100128.61;153871;1093;103100;-72
2021/07/19 03:53:04;;;;;;;7.33;5.50;;;;;;;18.87;68.73;100136.52;153852;1093;103214;-71
2021/07/19 03:56:12;;;;;;;8.20;5.48;;;;;;;18.94;68.80;100137.35;154015;1101;103604;-71
2021/07/19 03:59:20;;;;;;;7.08;5.75;;;;;;;19.08;68.83;100135.44;153842;1101;103220;-71
2021/07/19 04:02:27;;;;;;;7.35;5.88;;;;;;;19.32;68.56;100139.31;153839;1101;103128;-71
2021/07/19 04:05:40;;;;;;;9.40;6.45;;;;;;;19.50;68.29;100134.05;153976;1093;103260;-71
2021/07/19 04:08:52;;;;;;;8.70;6.93;;;;;;;19.72;68.32;100139.18;153889;1093;103173;-69
2021/07/19 04:11:59;;;;;;;11.17;6.97;;;;;;;19.92;68.25;100139.91;153834;1093;103213;-71
2021/07/19 04:15:08;;;;;;;9.30;6.83;;;;;;;20.04;67.83;100145.46;153786;1101;103166;-71
2021/07/19 04:18:13;;;;;;;11.75;7.18;;;;;;;20.18;67.91;100141.60;153904;1101;103307;-71
2021/07/19 04:21:32;;;;;;;9.50;6.47;;;;;;;20.37;67.70;100142.52;153861;1093;103227;-71
2021/07/19 04:24:38;;;;;;;9.97;7.13;;;;;;;20.46;67.29;100142.23;153894;1093;103131;-71
2021/07/19 04:27:44;;;;;;;9.33;6.97;;;;;;;20.59;67.40;100142.13;153926;1101;103442;-71
2021/07/19 04:30:52;;;;;;;11.15;7.20;;;;;;;20.72;67.17;100142.04;154001;1101;103294;-71
2021/07/19 04:33:57;;;;;;;13.25;8.03;;;;;;;20.76;66.79;100129.69;153985;1101;103130;-71
2021/07/19 04:37:10;;;;;;;10.90;7.63;;;;;;;20.73;66.26;100138.29;153981;1094;103324;-71
2021/07/19 04:40:27;;;;;;;10.10;7.40;;;;;;;20.68;66.50;100143.54;153981;1093;103130;-72
2021/07/19 04:43:32;;;;;;;10.60;7.80;;;;;;;20.67;66.15;100143.75;153926;1093;103194;-71
2021/07/19 04:46:37;;;;;;;11.08;7.88;;;;;;;20.66;66.13;100148.36;153903;1101;103131;-72
2021/07/19 04:49:43;;;;;;;11.25;7.98;;;;;;;20.62;65.93;100143.61;153946;1101;103205;-71
2021/07/19 04:52:48;;;;;;;11.50;8.00;;;;;;;20.54;66.04;100145.52;154134;1101;103185;-73
2021/07/19 04:55:58;;;;;;;10.97;7.67;;;;;;;20.61;65.70;100150.89;154069;1101;103192;-73
2021/07/19 04:59:06;;;;;;;10.93;7.15;;;;;;;20.64;65.91;100150.46;153965;1093;103593;-73
2021/07/19 05:02:17;;;;;;;10.13;7.13;;;;;;;20.76;65.55;100151.38;153999;1101;103128;-72
2021/07/19 05:05:25;;;;;;;10.40;7.33;;;;;;;20.81;65.08;100152.63;153990;1094;103198;-72
2021/07/19 05:08:32;;;;;;;9.23;7.07;;;;;;;20.79;65.36;100156.38;153740;1093;103269;-72
2021/07/19 05:11:38;;;;;;;9.30;6.95;;;;;;;20.85;65.33;100157.36;154030;1093;103691;-73
2021/07/19 05:14:44;;;;;;;9.03;6.63;;;;;;;20.96;65.69;100151.21;153969;1101;103198;-73
2021/07/19 05:17:50;;;;;;;8.00;6.67;;;;;;;21.02;65.09;100154.09;153803;1101;103130;-72
2021/07/19 05:20:56;;;;;;;11.90;7.45;;;;;;;21.10;64.59;100154.61;154036;1101;103122;-72
2021/07/19 05:24:01;;;;;;;9.08;6.68;;;;;;;21.01;64.63;100155.13;154092;1101;103196;-72
2021/07/19 05:27:09;;;;;;;11.00;6.55;;;;;;;21.01;63.17;100150.52;153949;1095;103103;-73
2021/07/19 05:30:15;;;;;;;8.37;6.57;;;;;;;20.95;64.50;100154.14;153958;1096;103128;-73
2021/07/19 05:33:23;;;;;;;8.93;6.23;;;;;;;21.01;63.72;100152.41;153977;1095;103203;-74
2021/07/19 05:36:28;;;;;;;9.80;6.33;;;;;;;21.03;63.99;100151.13;154013;1101;103129;-75
2021/07/19 05:39:33;;;;;;;8.73;6.30;;;;;;;21.05;63.14;100151.73;154016;1096;103374;-75
2021/07/19 05:42:39;;;;;;;10.30;6.03;;;;;;;21.06;63.90;100152.58;154023;1101;103473;-73
2021/07/19 05:45:44;;;;;;;10.38;6.10;;;;;;;21.12;63.34;100152.50;153995;1096;103195;-73
2021/07/19 05:48:49;;;;;;;6.60;5.37;;;;;;;21.24;63.81;100158.00;153838;1101;103195;-76
2021/07/19 05:51:54;;;;;;;7.93;5.20;;;;;;;21.26;62.04;100158.61;154042;1096;103131;-73
2021/07/19 05:54:59;;;;;;;8.23;5.23;;;;;;;21.25;62.79;100156.11;153971;1101;103261;-71
2021/07/19 05:58:04;;;;;;;8.15;5.20;;;;;;;21.31;62.29;100150.63;154023;1096;103195;-73
2021/07/19 06:01:09;;;;;;;6.90;4.63;;;;;;;21.36;61.50;100152.64;153954;1096;103196;-72
2021/07/19 06:04:14;;;;;;;7.55;4.60;;;;;;;21.34;62.36;100157.47;153985;1096;103190;-71
2021/07/19 06:07:19;;;;;;;5.70;4.25;;;;;;;21.31;62.09;100150.63;153796;1101;103147;-70
2021/07/19 06:10:26;;;;;;;7.60;4.63;;;;;;;21.40;62.82;100156.56;153803;1096;103270;-70
2021/07/19 06:13:31;;;;;;;7.30;4.70;;;;;;;21.40;61.42;100159.27;153813;1101;103133;-70
2021/07/19 06:16:36;;;;;;;9.67;5.07;;;;;;;21.32;61.91;100154.16;153774;1101;103199;-71
2021/07/19 06:19:41;;;;;;;9.77;4.43;;;;;;;21.30;62.42;100157.09;153822;1101;103196;-71
2021/07/19 06:22:48;;;;;;;8.43;4.93;;;;;;;21.31;61.45;100166.09;153868;1101;103595;-71
2021/07/19 06:25:53;;;;;;;6.53;5.00;;;;;;;21.32;62.29;100167.73;153809;1101;103198;-70
2021/07/19 06:28:58;;;;;;;9.63;4.78;;;;;;;21.27;60.84;100165.70;153825;1101;103147;-70
2021/07/19 06:32:03;;;;;;;7.68;4.20;;;;;;;21.25;60.79;100169.68;153802;1096;103123;-71
2021/07/19 06:35:11;;;;;;;9.48;4.20;;;;;;;21.23;59.37;100180.78;153810;1096;103106;-70
2021/07/19 06:38:17;;;;;;;7.93;4.40;;;;;;;21.14;60.96;100166.67;153836;1101;103099;-70
2021/07/19 06:41:22;;;;;;;6.33;3.25;;;;;;;21.07;57.94;100170.50;153885;1096;103282;-70
2021/07/19 06:44:27;;;;;;;5.65;3.28;;;;;;;21.07;59.81;100174.03;153825;1101;103194;-70
2021/07/19 06:47:32;;;;;;;10.05;3.95;;;;;;;21.13;58.38;100180.45;153864;1101;103190;-71
2021/07/19 06:50:38;;;;;;;8.38;3.95;;;;;;;21.10;59.61;100180.92;153810;1101;103190;-70
2021/07/19 06:53:43;;;;;;;5.70;3.80;;;;;;;21.11;59.80;100180.70;153845;1101;103217;-70
2021/07/19 06:56:48;;;;;;;7.33;4.10;;;;;;;21.15;59.17;100173.77;153834;1101;103196;-70
2021/07/19 06:59:55;;;;;;;9.37;4.00;;;;;;;21.18;58.98;100186.05;153910;1096;103142;-69
2021/07/19 07:03:00;;;;;;;6.25;3.73;;;;;;;21.13;58.40;100185.88;153894;1093;103206;-70
2021/07/19 07:06:05;;;;;;;6.30;3.90;;;;;;;21.17;58.79;100182.51;153784;1101;103166;-72
2021/07/19 07:09:10;;;;;;;8.50;4.30;;;;;;;21.27;59.07;100183.88;153987;1094;103119;-70
2021/07/19 07:12:15;;;;;;;7.93;3.80;;;;;;;21.21;57.40;100182.04;153807;1094;103211;-70
2021/07/19 07:15:20;;;;;;;7.23;4.15;;;;;;;21.23;58.74;100172.64;153886;1093;103201;-71
2021/07/19 07:18:25;;;;;;;7.47;3.73;;;;;;;21.30;58.29;100175.27;153838;1093;103139;-70
2021/07/19 07:21:31;;;;;;;8.47;4.10;;;;;;;21.35;58.28;100183.57;153766;1094;103190;-70
2021/07/19 07:24:40;;;;;;;6.75;3.73;;;;;;;21.36;58.56;100180.64;153839;1101;103278;-70
2021/07/19 07:27:45;;;;;;;6.45;3.73;;;;;;;21.41;57.04;100174.52;153805;1101;103264;-70
2021/07/19 07:30:50;;;;;;;10.33;4.13;;;;;;;21.51;58.04;100179.45;153826;1101;103198;-71
2021/07/19 07:33:56;;;;;;;7.40;3.60;;;;;;;21.58;57.20;100171.23;153842;1101;103123;-70
2021/07/19 07:37:01;;;;;;;5.60;3.60;;;;;;;21.51;55.23;100182.98;153818;1101;103157;-71
2021/07/19 07:40:09;;;;;;;5.33;3.50;;;;;;;21.48;57.28;100172.59;153841;1093;103554;-71
2021/07/19 07:43:14;;;;;;;9.50;3.93;;;;;;;21.53;56.83;100164.58;153855;1101;103412;-71
2021/07/19 07:46:20;;;;;;;6.83;3.33;;;;;;;21.67;55.94;100169.84;153843;1101;103114;-71
2021/07/19 07:49:26;;;;;;;9.10;3.83;;;;;;;21.63;55.23;100171.36;153819;1101;103192;-71
2021/07/19 07:52:31;;;;;;;6.33;3.50;;;;;;;21.59;56.10;100178.31;153780;1094;104244;-70
2021/07/19 07:55:36;;;;;;;6.20;3.70;;;;;;;21.64;56.12;100173.04;153814;1101;103120;-75
2021/07/19 07:58:42;;;;;;;10.33;3.48;;;;;;;21.69;54.01;100174.02;153825;1101;103177;-72
2021/07/19 08:01:47;;;;;;;8.90;3.70;;;;;;;21.67;55.12;100170.70;153827;1101;103189;-71
2021/07/19 08:04:52;;;;;;;6.93;3.38;;;;;;;21.74;54.98;100176.85;153812;1093;103183;-71
2021/07/19 08:07:57;;;;;;;7.25;3.88;;;;;;;21.82;55.38;100170.28;153798;1094;103192;-71
2021/07/19 08:11:02;;;;;;;7.73;4.18;;;;;;;21.95;56.21;100163.84;153850;1101;103199;-71
2021/07/19 08:14:07;;;;;;;7.03;4.30;;;;;;;22.06;54.85;100156.80;153854;1101;103205;-71
2021/07/19 08:17:12;;;;;;;5.50;3.95;;;;;;;22.14;53.63;100164.63;153850;1101;103187;-71
2021/07/19 08:20:17;;;;;;;8.00;4.15;;;;;;;22.20;54.98;100160.97;153796;1101;103131;-70
2021/07/19 08:23:22;;;;;;;6.90;4.03;;;;;;;22.22;54.55;100158.03;153805;1101;103195;-71
2021/07/19 08:26:28;;;;;;;7.87;4.30;;;;;;;22.24;55.06;100162.16;153818;1101;103102;-71
2021/07/19 08:29:33;;;;;;;9.23;4.43;;;;;;;22.33;54.57;100158.09;153896;1101;103372;-69
2021/07/19 08:32:38;;;;;;;8.75;3.95;;;;;;;22.38;55.41;100159.27;153913;1096;103166;-70
2021/07/19 08:35:45;;;;;;;8.80;4.08;;;;;;;22.43;54.61;100151.25;153782;1101;103131;-70
2021/07/19 08:38:51;;;;;;;7.60;4.80;;;;;;;22.57;54.72;100149.95;153774;1093;103500;-70
2021/07/19 08:41:56;;;;;;;7.63;4.33;;;;;;;22.66;53.68;100153.99;153944;1101;103129;-70
2021/07/19 08:45:02;;;;;;;7.23;4.67;;;;;;;22.73;54.24;100157.44;153844;1093;103165;-69
2021/07/19 08:48:08;;;;;;;7.95;4.55;;;;;;;22.88;54.37;100162.41;153794;1101;103195;-70
2021/07/19 08:51:15;;;;;;;9.18;4.08;;;;;;;22.80;53.36;100154.59;153839;1093;103160;-70
2021/07/19 08:54:21;;;;;;;6.57;4.13;;;;;;;22.84;52.78;100152.22;153827;1101;103157;-70
2021/07/19 08:57:27;;;;;;;6.07;3.87;;;;;;;23.07;54.64;100145.97;153843;1094;103119;-70
2021/07/19 09:00:32;;;;;;;7.78;4.50;;;;;;;23.17;53.79;100145.37;153798;1101;103377;-71
2021/07/19 09:03:37;;;;;;;8.10;4.23;;;;;;;23.11;53.64;100137.11;153878;1101;103196;-70
2021/07/19 09:06:43;;;;;;;7.33;4.20;;;;;;;23.23;54.44;100142.53;153830;1101;103157;-70
2021/07/19 09:09:52;;;;;;;7.30;4.60;;;;;;;23.26;52.91;100141.22;153904;1093;103227;-71
2021/07/19 09:13:00;;;;;;;8.23;4.20;;;;;;;23.26;53.22;100146.66;153837;1101;103246;-71
2021/07/19 09:16:06;;;;;;;10.03;4.58;;;;;;;23.23;52.35;100144.41;153846;1101;103267;-69
2021/07/19 09:19:12;;;;;;;6.50;4.20;;;;;;;23.19;54.28;100143.23;153881;1101;103220;-69
2021/07/19 09:22:25;;;;;;;6.10;3.83;;;;;;;23.23;51.20;100141.69;153910;1101;103160;-69
2021/07/19 09:25:30;;;;;;;7.10;3.75;;;;;;;23.21;53.35;100143.81;153868;1101;103200;-70
2021/07/19 09:28:35;;;;;;;9.23;4.80;;;;;;;23.30;53.85;100145.93;153810;1093;103144;-69
2021/07/19 09:31:43;;;;;;;6.35;3.83;;;;;;;23.40;54.28;100153.48;153805;1101;103296;-70
2021/07/19 09:34:48;;;;;;;8.97;4.60;;;;;;;23.45;52.93;100147.33;153825;1101;103132;-69
2021/07/19 09:37:54;;;;;;;6.80;3.90;;;;;;;23.60;53.50;100149.55;153819;1093;103154;-70
2021/07/19 09:41:01;;;;;;;9.73;4.78;;;;;;;23.92;52.93;100141.73;153908;1101;103147;-70
2021/07/19 09:44:09;;;;;;;7.63;4.08;;;;;;;24.08;52.73;100146.41;153894;1101;103122;-70
2021/07/19 09:47:15;;;;;;;5.77;4.23;;;;;;;24.27;53.10;100144.28;153816;1101;103219;-70
2021/07/19 09:50:20;;;;;;;5.55;3.60;;;;;;;24.55;53.01;100145.31;153822;1094;103305;-69
2021/07/19 09:53:35;;;;;;;7.00;4.10;;;;;;;24.63;50.86;100153.06;153834;1093;103189;-70
2021/07/19 09:56:41;;;;;;;6.63;3.90;;;;;;;24.42;49.43;100140.15;153843;1101;103124;-70
2021/07/19 09:59:57;;;;;;;8.30;3.80;;;;;;;24.43;51.90;100144.55;153819;1101;103495;-69
2021/07/19 10:03:13;;;;;;;6.20;4.08;;;;;;;24.62;51.67;100148.70;153871;1094;103263;-70
2021/07/19 10:06:28;;;;;;;6.03;3.90;;;;;;;24.72;50.69;100144.48;153894;1093;103195;-70
2021/07/19 10:09:40;;;;;;;6.83;3.90;;;;;;;24.69;50.63;100143.06;153805;1101;103144;-70
2021/07/19 10:12:45;;;;;;;5.97;3.60;;;;;;;24.75;50.17;100147.55;153899;1093;103179;-70
2021/07/19 10:15:52;;;;;;;6.77;3.80;;;;;;;24.84;51.33;100145.20;153906;1101;103253;-70
2021/07/19 10:18:58;;;;;;;5.97;3.80;;;;;;;24.81;50.84;100140.27;153830;1101;103251;-70
2021/07/19 10:22:03;;;;;;;6.73;4.00;;;;;;;24.70;48.83;100133.81;153824;1101;103131;-70
2021/07/19 10:25:10;;;;;;;6.67;4.00;;;;;;;24.56;50.37;100136.06;153876;1101;103125;-70
2021/07/19 10:28:15;;;;;;;6.25;3.63;;;;;;;24.55;51.07;100131.67;153852;1101;103148;-70
2021/07/19 10:31:21;;;;;;;5.55;3.60;;;;;;;24.85;51.07;100130.50;153819;1101;103144;-70
2021/07/19 10:34:27;;;;;;;7.97;4.00;;;;;;;25.08;51.13;100122.08;153807;1101;103659;-69
2021/07/19 10:37:36;;;;;;;5.35;3.20;;;;;;;25.13;51.00;100124.05;153845;1093;103195;-70
2021/07/19 10:40:44;;;;;;;5.55;3.60;;;;;;;25.19;50.52;100117.59;153816;1101;103149;-70
2021/07/19 10:43:58;;;;;;;6.93;3.70;;;;;;;25.34;50.58;100116.97;153841;1101;103070;-70
2021/07/19 10:47:16;;;;;;;5.50;3.75;;;;;;;25.52;50.54;100117.72;153865;1093;103944;-70
2021/07/19 10:50:25;;;;;;;7.83;3.50;;;;;;;25.59;49.61;100121.09;153842;1101;103192;-69
2021/07/19 10:53:34;;;;;;;6.97;3.70;;;;;;;25.54;48.45;100115.55;153892;1101;103197;-70
2021/07/19 10:56:39;;;;;;;7.23;3.90;;;;;;;25.25;46.72;100115.76;153829;1093;103190;-70
2021/07/19 10:59:46;;;;;;;6.47;3.63;;;;;;;25.12;49.32;100116.13;153861;1093;103192;-70
2021/07/19 11:03:02;;;;;;;6.18;3.80;;;;;;;25.25;49.65;100113.03;153837;1101;103200;-70
2021/07/19 11:06:07;;;;;;;6.55;3.70;;;;;;;25.53;48.44;100105.73;153844;1101;103304;-69
2021/07/19 11:09:12;;;;;;;8.28;3.60;;;;;;;25.51;49.20;100113.36;153941;1101;103557;-69
2021/07/19 11:12:19;;;;;;;6.63;3.77;;;;;;;25.31;48.31;100112.03;153809;1093;103144;-69
2021/07/19 11:15:35;;;;;;;5.95;4.00;;;;;;;25.10;48.79;100113.64;153847;1101;103141;-70
2021/07/19 11:18:40;;;;;;;5.65;3.65;;;;;;;24.98;48.99;100104.73;153952;1101;103196;-70
2021/07/19 11:21:46;;;;;;;9.43;4.50;;;;;;;25.00;48.81;100099.84;153846;1101;103251;-70
2021/07/19 11:24:53;;;;;;;5.47;3.50;;;;;;;25.07;49.47;100098.58;153835;1094;103253;-70
2021/07/19 11:27:58;;;;;;;5.77;3.67;;;;;;;25.41;49.46;100087.56;153866;1093;103131;-70
2021/07/19 11:31:15;;;;;;;7.25;3.68;;;;;;;25.54;48.50;100085.50;153747;1101;103326;-70
2021/07/19 11:34:26;;;;;;;6.73;3.75;;;;;;;25.40;48.38;100091.36;153887;1093;103157;-70
2021/07/19 11:37:36;;;;;;;5.30;3.30;;;;;;;25.20;48.71;100081.00;153805;1101;103174;-70
2021/07/19 11:40:41;;;;;;;5.30;3.50;;;;;;;25.21;47.98;100085.39;153861;1101;103288;-70
2021/07/19 11:43:48;;;;;;;7.05;3.60;;;;;;;25.26;48.50;100081.92;153798;1101;103120;-70
2021/07/19 11:46:54;;;;;;;5.73;4.13;;;;;;;25.28;47.83;100074.30;153856;1101;103115;-70
2021/07/19 11:50:04;;;;;;;9.05;3.63;;;;;;;25.43;48.04;100071.74;153857;1101;103528;-70
2021/07/19 11:53:09;;;;;;;7.90;4.10;;;;;;;25.56;46.32;100077.88;153825;1101;103583;-70
2021/07/19 11:56:14;;;;;;;4.40;3.27;;;;;;;25.62;48.09;100072.22;153881;1093;103125;-69
2021/07/19 11:59:23;;;;;;;5.30;3.80;;;;;;;25.81;48.17;100064.49;153853;1094;103153;-70
2021/07/19 12:02:31;;;;;;;5.23;3.30;;;;;;;25.58;47.45;100065.63;153815;1092;103189;-69
2021/07/19 12:05:36;;;;;;;4.27;3.20;;;;;;;25.21;46.46;100082.67;153809;1101;103159;-69
2021/07/19 12:08:41;;;;;;;7.37;4.00;;;;;;;24.98;47.97;100071.97;153807;1101;103271;-70
2021/07/19 12:11:54;;;;;;;7.27;3.87;;;;;;;24.94;46.96;100071.65;153867;1101;103113;-69
2021/07/19 12:15:00;;;;;;;6.17;3.80;;;;;;;24.91;47.36;100066.71;153860;1101;103139;-77
2021/07/19 12:18:05;;;;;;;7.37;3.90;;;;;;;24.73;46.49;100072.45;154015;1093;103243;-70
2021/07/19 12:21:14;;;;;;;5.28;3.65;;;;;;;24.74;47.51;100065.93;153899;1101;103144;-72
2021/07/19 12:24:22;;;;;;;5.40;3.60;;;;;;;24.66;47.33;100069.91;153804;1101;103184;-70
2021/07/19 12:27:27;;;;;;;4.80;3.50;;;;;;;24.52;46.83;100065.88;153872;1101;103195;-70
2021/07/19 12:30:32;;;;;;;9.10;4.07;;;;;;;24.56;48.07;100065.14;153820;1094;103129;-70
2021/07/19 12:33:40;;;;;;;7.28;3.80;;;;;;;24.69;48.15;100063.94;153844;1093;103151;-69
2021/07/19 12:36:51;;;;;;;6.53;3.80;;;;;;;24.74;47.13;100061.29;153904;1093;103147;-70
2021/07/19 12:39:57;;;;;;;;;;;;;;;24.78;46.59;100062.44;153852;1101;103187;-70
2021/07/19 12:43:02;;;;;;;8.38;3.90;;;;;;;24.80;47.42;100062.19;153829;1101;103141;-70
2021/07/19 12:46:07;;;;;;;5.90;3.90;;;;;;;24.97;47.70;100054.78;153819;1101;103207;-70
2021/07/19 12:49:13;;;;;;;6.68;3.73;;;;;;;25.25;47.77;100059.26;153847;1101;103233;-70
2021/07/19 12:52:20;;;;;;;8.13;4.73;;;;;;;25.27;47.08;100057.09;153779;1101;103257;-70
2021/07/19 12:55:28;;;;;;;6.65;3.95;;;;;;;25.19;47.60;100057.52;153788;1101;103213;-70
2021/07/19 12:58:33;;;;;;;6.05;4.25;;;;;;;25.06;46.75;100064.18;153957;1101;103128;-68
2021/07/19 13:01:40;;;;;;;6.95;4.20;;;;;;;24.84;46.84;100063.33;153840;1101;103140;-73
2021/07/19 13:04:47;;;;;;;6.35;4.73;;;;;;;24.64;47.77;100061.16;153814;1101;103135;-70
2021/07/19 13:07:53;;;;;;;6.10;4.77;;;;;;;24.61;46.62;100057.01;153875;1101;103051;-69
2021/07/19 13:11:08;;;;;;;7.17;4.33;;;;;;;24.52;48.02;100055.81;153801;1101;103576;-69
2021/07/19 13:14:18;;;;;;;7.03;4.00;;;;;;;24.55;47.77;100047.11;153846;1093;103192;-69
2021/07/19 13:17:27;;;;;;;7.15;4.23;;;;;;;24.53;46.83;100045.72;153820;1101;103121;-69
2021/07/19 13:20:32;;;;;;;7.20;4.10;;;;;;;24.53;47.74;100049.27;153820;1094;103136;-70
2021/07/19 13:23:42;;;;;;;8.85;4.55;;;;;;;24.55;47.81;100044.38;153833;1094;103175;-70
2021/07/19 13:26:47;;;;;;;6.95;4.40;;;;;;;24.64;48.17;100042.06;153848;1093;103273;-69
2021/07/19 13:29:55;;;;;;;6.10;4.17;;;;;;;24.66;47.67;100035.27;153864;1091;103129;-69
2021/07/19 13:33:00;;;;;;;7.55;5.00;;;;;;;24.68;46.37;100030.38;153854;1094;103131;-69
2021/07/19 13:36:06;;;;;;;6.40;4.20;;;;;;;24.69;47.59;100032.05;153826;1101;103196;-69
2021/07/19 13:39:11;;;;;;;6.87;4.93;;;;;;;24.86;47.21;100022.97;153955;1101;103551;-70
2021/07/19 13:42:16;;;;;;;7.53;5.08;;;;;;;24.91;47.66;100027.69;153921;1093;103317;-70
2021/07/19 13:45:22;;;;;;;7.75;4.80;;;;;;;24.89;46.93;100015.10;153818;1101;103128;-69
2021/07/19 13:48:28;;;;;;;7.70;4.80;;;;;;;24.88;46.52;100012.63;153723;1101;103156;-69
2021/07/19 13:51:33;;;;;;;6.80;4.50;;;;;;;24.97;47.45;100011.10;154056;1093;103149;-69
2021/07/19 13:54:38;;;;;;;10.37;4.97;;;;;;;25.20;46.48;100023.66;153832;1096;103307;-68
2021/07/19 13:57:43;;;;;;;8.75;4.85;;;;;;;25.31;46.96;100010.98;154064;1101;103391;-70
2021/07/19 14:00:49;;;;;;;7.45;4.88;;;;;;;25.40;46.51;100017.61;153913;1096;103195;-69
2021/07/19 14:03:54;;;;;;;8.93;5.05;;;;;;;25.27;46.30;100009.85;153837;1101;103125;-70
2021/07/19 14:06:59;;;;;;;8.40;4.87;;;;;;;25.25;47.01;100010.10;153777;1096;103579;-71
2021/07/19 14:10:06;;;;;;;9.10;5.60;;;;;;;25.25;46.20;100014.72;153871;1101;103136;-70
2021/07/19 14:13:12;;;;;;;6.95;5.35;;;;;;;25.16;46.66;100006.14;153815;1101;103356;-70